METAR stanice u blizini

 

LYBE - Beograd / Surčin, Srbija
Ažurirano: 23/04/2024 00:00
Vedro
Vedro
 Pravac vetra ISI
Vetar: ISI 15 km/h
Temperatura: 9°C
Osećaj hladnoće: 7°C
Tačka rose: 4°C
Vlažnost: 71%
Pritisak: 1016 hPa
Pregled: Vedro
Vidljivost: greater than 10 km
2024/04/22 22:00 LYBE 222200Z 06008KT CAVOK 09/04 Q1016 NOSIG
LYBT - Beograd / Batajnica, Srbija
Ažurirano: 23/04/2024 00:00
Vedro
Vedro
 Pravac vetra ISI
Vetar: ISI 19 km/h
Temperatura: 8°C
Osećaj hladnoće: 4°C
Tačka rose: 5°C
Vlažnost: 82%
Pritisak: 1016 hPa
Pregled: Vedro
Vidljivost: greater than 10 km
2024/04/22 22:00 LYBT 222200Z 07010KT CAVOK 08/05 Q1016 NOSIG
LYVR - Vršac, Srbija
Ažurirano: 23/04/2024 00:00
Vedro
Vedro
 Pravac vetra SSI
Vetar: SSI 13 km/h
Temperatura: 8°C
Osećaj hladnoće: 6°C
Tačka rose: 5°C
Vlažnost: 82%
Pritisak: 1017 hPa
Pregled: Vedro
Vidljivost: greater than 10 km
2024/04/22 22:00 LYVR 222200Z AUTO 03007KT CAVOK 08/05 Q1017
 
LYKV - Lađevci, Srbija
Ažurirano: 23/04/2024 00:00
Vedro
Vedro
 Pravac vetra JJZ
Vetar: JJZ 2 km/h
Temperatura: 4°C
Tačka rose: 2°C
Vlažnost: 87%
Pritisak: 1015 hPa
Pregled: Vedro
Vidljivost: greater than 10 km
2024/04/22 22:00 LYKV 222200Z 20001KT CAVOK 04/02 Q1015 NOSIG
LYNI - Niš, Srbija
Ažurirano: 23/04/2024 00:00
Vedro
Vedro
 Pravac vetra calm
Vetar: Tišina
Temperatura: 8°C
Tačka rose: 5°C
Vlažnost: 82%
Pritisak: 1016 hPa
Pregled: Vedro
Vidljivost: greater than 10 km
2024/04/22 22:00 LYNI 222200Z 00000KT CAVOK 08/05 Q1016 NOSIG
BKPR - Priština, Srbija
Ažurirano: 23/04/2024 00:30
Few Clouds
Few Clouds
 Pravac vetra varies
Vetar: varies 4 km/h
Temperatura: 9°C
Tačka rose: 4°C
Vlažnost: 71%
Pritisak: 1015 hPa
Oblaci: Few Clouds
Vidljivost: 10 km
Cloud details: Few Clouds 2438 m
2024/04/22 22:30 BKPR 222230Z VRB02KT 9999 FEW080 09/04 Q1015 NOSIG
 
LHPP - Pecs / Pogany, Hungary
Ažurirano: 22/04/2024 23:45
Vedro
Vedro
 Pravac vetra I
Vetar: I 17 km/h
Temperatura: 7°C
Osećaj hladnoće: 4°C
Tačka rose: 4°C
Vlažnost: 81%
Pritisak: 1016 hPa
Pregled: Vedro
Vidljivost: greater than 10 km
2024/04/22 21:45 LHPP 222145Z AUTO 08009KT CAVOK 07/04 Q1016
LHUD - Szeged, Hungary
Ažurirano: 04/07/2019 01:45
NOT Current
Vedro
Vedro
 Pravac vetra S
Vetar: S 7 km/h
Temperatura: 18°C
Tačka rose: 13°C
Vlažnost: 73%
Pritisak: 1019 hPa
Pregled: Vedro
Vidljivost: greater than 10 km
2019/07/03 23:45 LHUD 032345Z 35004KT CAVOK 18/13 Q1019
LRTR - Timisoara, Romania
Ažurirano: 23/04/2024 00:00
Vedro
Vedro
 Pravac vetra ISI
Vetar: ISI 13 km/h
Temperatura: 4°C
Osećaj hladnoće: 1°C
Tačka rose: 4°C
Vlažnost: 100%
Pritisak: 1017 hPa
Pregled: Vedro
Vidljivost: greater than 10 km
2024/04/22 22:00 LRTR 222200Z 07007KT CAVOK 04/04 Q1017
 
LRCV - Craiova, Romania
Ažurirano: 23/04/2024 00:00
Vedro
Vedro
 Pravac vetra I
Vetar: I 17 km/h
Temperatura: 8°C
Osećaj hladnoće: 5°C
Tačka rose: 7°C
Vlažnost: 93%
Pritisak: 1018 hPa
Pregled: Vedro
Vidljivost: greater than 10 km
2024/04/22 22:00 LRCV 222200Z 09009KT CAVOK 08/07 Q1018
LBSF - Sofia, Bulgaria
Ažurirano: 23/04/2024 00:30
Partly Cloudy
Partly Cloudy
 Pravac vetra varies
Vetar: varies 2 km/h
Temperatura: 9°C
Tačka rose: 6°C
Vlažnost: 82%
Pritisak: 1017 hPa
Oblaci: Partly Cloudy
Vidljivost: 10 km
2024/04/22 22:30 LBSF 222230Z AUTO VRB01KT 9999 NSC 09/06 Q1017 NOSIG
LWSK - Skoplje, Makedonija
Ažurirano: 23/04/2024 00:20
Mostly Cloudy
Mostly Cloudy
 Pravac vetra JI
Vetar: JI 17 km/h
Temperatura: 12°C
Tačka rose: 8°C
Vlažnost: 77%
Pritisak: 1016 hPa
Oblaci: Mostly Cloudy
Vidljivost: 10 km
Cloud details: Few Clouds 1798 m
Mostly Cloudy 2682 m
2024/04/22 22:20 LWSK 222220Z 14009KT 100V180 9999 FEW059 BKN088 12/08 Q1016 NOSIG
 
LYPG - Podgorica, Crna Gora
Ažurirano: 23/04/2024 00:00
Partly Cloudy
Partly Cloudy
 Pravac vetra S
Vetar: S 11 km/h
Temperatura: 10°C
Osećaj hladnoće: 8°C
Tačka rose: 7°C
Vlažnost: 82%
Pritisak: 1012 hPa
Oblaci: Partly Cloudy
Vidljivost: 10 km
Cloud details: Partly Cloudy 2743 m
2024/04/22 22:00 LYPG 222200Z 36006KT 9999 SCT090 10/07 Q1012 NOSIG
LQSA - Sarajevo, Bosna i Hercegovina
Ažurirano: 23/04/2024 00:00
Vedro
Vedro
 Pravac vetra varies
Vetar: varies 4 km/h
Temperatura: 5°C
Tačka rose: 4°C
Vlažnost: 93%
Pritisak: 1012 hPa
Pregled: Vedro
Vidljivost: greater than 10 km
2024/04/22 22:00 LQSA 222200Z VRB02KT CAVOK 05/04 Q1012
LDOS - Osijek, Hrvatksa
Ažurirano: 23/04/2024 00:00
Vedro
Vedro
 Pravac vetra I
Vetar: I 24 km/h
Temperatura: 9°C
Osećaj hladnoće: 6°C
Tačka rose: 4°C
Vlažnost: 71%
Pritisak: 1016 hPa
Pregled: Vedro
Vidljivost: greater than 10 km
2024/04/22 22:00 LDOS 222200Z 08013KT CAVOK 09/04 Q1016